Capitol Logistics 559


VIDP
Indira Gandhi International Airport
New Delhi, IN
WSSS
Changi International Airport
Singapore, SG

Activity Log

Date Flight Route Aircraft Duration
10/16/2020 CPX559 ITBAN L759 PUT VPL W531 VIH A464 ARAMA B744 5h 37m
11/11/2019 CPX759 ITBAN L759 PUT VPL W531 VIH A464 ARAMA B744 4h 57m

Route Details

Aircraft Information
Primary: Boeing 747-400BCF
Backup: Boeing 777-200LRF
Route Data
Distance: 2241nm
Sched. Duration: 5h 50m
Avg. Duration: 4h 97m (-53m)
Times Flown: 2
Recm'd Route: ITBAN L759 PUT VPL W531 VIH A464 ARAMA
Planned Altitude: 33,000ft
Origin Wx: VIDP 222030Z 00000KT 2200 HZ FEW040 SCT100 20/14 Q1008 NOSIG
Dest. Wx: WSSS 222030Z 29004KT 250V310 9999 FEW018 BKN300 28/23 Q1008 NOSIG
Notes:

Financial History
Total Freight: 263,903lbs
Average Load: 131,952lbs/flt
Fuel Used: 216,822lbs
Avg. Fuel Used: 108,411lbs/flt
Fuel Expense: $173,458
Avg. Fuel Expense: $86,729
Avg. Fuel Cost: $0.80/lbs
Total Gross Income: $1,057,871
Pilot Pay: $468
Total Expenses: $114,354
Total Revenue: $767,547
Average Revenue: $528,935.27